Terminal Aerodrome Forecast
Issued by NWS

Home | Current Version | Previous Version | Text Only | Print | Product List | Glossary On
Versions: 1 2 3 4 5 6 7 8 9 10 11 12 13 14 15 16 17 18
562
FTUS44 KSJT 301746
TAFSOA
TAF
KSOA 301746Z 3018/3118 17012KT P6SM OVC018
     FM301900 18010KT P6SM VCSH SCT035
     FM302100 16008KT P6SM VCTS BKN050CB
     FM310300 15006KT P6SM SCT050 BKN100
     FM310700 15005KT P6SM BKN015=

USA.gov is the U.S. government's official web portal to all federal, state and local government web resources and services.